sensor_id;sensor_type;location;lat;lon;timestamp;P1;durP1;ratioP1;P2;durP2;ratioP2
12129;SDS011;6128;59.340;18.040;2023-05-02T00:01:39;0.20;;;0.20;;
12129;SDS011;6128;59.340;18.040;2023-05-02T00:04:07;0.20;;;0.20;;
12129;SDS011;6128;59.340;18.040;2023-05-02T00:06:34;1.40;;;0.40;;
12129;SDS011;6128;59.340;18.040;2023-05-02T00:09:02;0.10;;;0.10;;
12129;SDS011;6128;59.340;18.040;2023-05-02T00:11:30;0.30;;;0.30;;
12129;SDS011;6128;59.340;18.040;2023-05-02T00:13:57;0.20;;;0.20;;
12129;SDS011;6128;59.340;18.040;2023-05-02T00:16:25;0.13;;;0.13;;
12129;SDS011;6128;59.340;18.040;2023-05-02T00:18:52;0.30;;;0.30;;
12129;SDS011;6128;59.340;18.040;2023-05-02T00:21:19;0.20;;;0.20;;
12129;SDS011;6128;59.340;18.040;2023-05-02T00:23:46;0.20;;;0.20;;
12129;SDS011;6128;59.340;18.040;2023-05-02T00:26:13;0.10;;;0.10;;
12129;SDS011;6128;59.340;18.040;2023-05-02T00:28:41;0.20;;;0.20;;
12129;SDS011;6128;59.340;18.040;2023-05-02T00:31:08;0.20;;;0.20;;
12129;SDS011;6128;59.340;18.040;2023-05-02T00:33:35;0.10;;;0.10;;
12129;SDS011;6128;59.340;18.040;2023-05-02T00:36:02;0.57;;;0.10;;
12129;SDS011;6128;59.340;18.040;2023-05-02T00:38:30;0.10;;;0.10;;
12129;SDS011;6128;59.340;18.040;2023-05-02T00:40:57;0.10;;;0.10;;
12129;SDS011;6128;59.340;18.040;2023-05-02T00:43:24;0.10;;;0.10;;
12129;SDS011;6128;59.340;18.040;2023-05-02T00:45:56;0.17;;;0.17;;
12129;SDS011;6128;59.340;18.040;2023-05-02T00:48:24;0.10;;;0.10;;
12129;SDS011;6128;59.340;18.040;2023-05-02T00:50:52;0.07;;;0.07;;
12129;SDS011;6128;59.340;18.040;2023-05-02T00:53:19;0.03;;;0.03;;
12129;SDS011;6128;59.340;18.040;2023-05-02T00:55:46;0.10;;;0.10;;
12129;SDS011;6128;59.340;18.040;2023-05-02T00:58:14;0.00;;;0.00;;
12129;SDS011;6128;59.340;18.040;2023-05-02T01:00:48;0.00;;;0.00;;
12129;SDS011;6128;59.340;18.040;2023-05-02T01:03:40;0.10;;;0.10;;
12129;SDS011;6128;59.340;18.040;2023-05-02T01:06:15;0.10;;;0.10;;
12129;SDS011;6128;59.340;18.040;2023-05-02T01:08:54;0.10;;;0.10;;
12129;SDS011;6128;59.340;18.040;2023-05-02T01:11:34;0.10;;;0.10;;
12129;SDS011;6128;59.340;18.040;2023-05-02T01:14:09;0.10;;;0.10;;
12129;SDS011;6128;59.340;18.040;2023-05-02T01:16:38;0.10;;;0.10;;
12129;SDS011;6128;59.340;18.040;2023-05-02T01:19:08;0.10;;;0.10;;
12129;SDS011;6128;59.340;18.040;2023-05-02T01:21:45;1.33;;;0.20;;
12129;SDS011;6128;59.340;18.040;2023-05-02T01:24:16;0.20;;;0.20;;
12129;SDS011;6128;59.340;18.040;2023-05-02T01:26:51;0.23;;;0.20;;
12129;SDS011;6128;59.340;18.040;2023-05-02T01:29:28;0.40;;;0.10;;
12129;SDS011;6128;59.340;18.040;2023-05-02T01:31:57;0.33;;;0.33;;
12129;SDS011;6128;59.340;18.040;2023-05-02T01:34:27;0.20;;;0.20;;
12129;SDS011;6128;59.340;18.040;2023-05-02T01:36:56;0.20;;;0.20;;
12129;SDS011;6128;59.340;18.040;2023-05-02T01:39:24;0.10;;;0.10;;
12129;SDS011;6128;59.340;18.040;2023-05-02T01:41:52;0.10;;;0.10;;
12129;SDS011;6128;59.340;18.040;2023-05-02T01:44:22;0.20;;;0.20;;
12129;SDS011;6128;59.340;18.040;2023-05-02T01:46:52;0.20;;;0.20;;
12129;SDS011;6128;59.340;18.040;2023-05-02T01:49:21;0.20;;;0.20;;
12129;SDS011;6128;59.340;18.040;2023-05-02T01:51:49;0.67;;;0.10;;
12129;SDS011;6128;59.340;18.040;2023-05-02T01:54:18;0.30;;;0.20;;
12129;SDS011;6128;59.340;18.040;2023-05-02T01:56:48;0.10;;;0.10;;
12129;SDS011;6128;59.340;18.040;2023-05-02T01:59:17;0.10;;;0.10;;
12129;SDS011;6128;59.340;18.040;2023-05-02T02:01:46;0.10;;;0.10;;
12129;SDS011;6128;59.340;18.040;2023-05-02T02:04:17;0.10;;;0.10;;
12129;SDS011;6128;59.340;18.040;2023-05-02T02:06:47;0.10;;;0.10;;
12129;SDS011;6128;59.340;18.040;2023-05-02T02:09:17;0.10;;;0.10;;
12129;SDS011;6128;59.340;18.040;2023-05-02T02:11:46;0.10;;;0.10;;
12129;SDS011;6128;59.340;18.040;2023-05-02T02:14:18;0.10;;;0.10;;
12129;SDS011;6128;59.340;18.040;2023-05-02T02:16:46;0.30;;;0.20;;
12129;SDS011;6128;59.340;18.040;2023-05-02T02:19:20;0.43;;;0.10;;
12129;SDS011;6128;59.340;18.040;2023-05-02T02:21:48;0.20;;;0.20;;
12129;SDS011;6128;59.340;18.040;2023-05-02T02:24:17;0.10;;;0.10;;
12129;SDS011;6128;59.340;18.040;2023-05-02T02:26:47;0.40;;;0.30;;
12129;SDS011;6128;59.340;18.040;2023-05-02T02:29:14;0.10;;;0.10;;
12129;SDS011;6128;59.340;18.040;2023-05-02T02:31:41;0.20;;;0.20;;
12129;SDS011;6128;59.340;18.040;2023-05-02T02:34:08;0.97;;;0.20;;
12129;SDS011;6128;59.340;18.040;2023-05-02T02:36:38;0.20;;;0.20;;
12129;SDS011;6128;59.340;18.040;2023-05-02T02:39:13;0.23;;;0.23;;
12129;SDS011;6128;59.340;18.040;2023-05-02T02:41:48;0.47;;;0.27;;
12129;SDS011;6128;59.340;18.040;2023-05-02T02:44:25;0.20;;;0.20;;
12129;SDS011;6128;59.340;18.040;2023-05-02T02:47:05;0.20;;;0.20;;
12129;SDS011;6128;59.340;18.040;2023-05-02T02:49:37;0.20;;;0.20;;
12129;SDS011;6128;59.340;18.040;2023-05-02T02:52:16;0.20;;;0.20;;
12129;SDS011;6128;59.340;18.040;2023-05-02T02:54:49;0.10;;;0.10;;
12129;SDS011;6128;59.340;18.040;2023-05-02T02:57:23;0.20;;;0.20;;
12129;SDS011;6128;59.340;18.040;2023-05-02T02:59:57;0.20;;;0.20;;
12129;SDS011;6128;59.340;18.040;2023-05-02T03:02:30;0.23;;;0.20;;
12129;SDS011;6128;59.340;18.040;2023-05-02T03:04:58;0.13;;;0.10;;
12129;SDS011;6128;59.340;18.040;2023-05-02T03:07:29;0.37;;;0.20;;
12129;SDS011;6128;59.340;18.040;2023-05-02T03:09:56;0.73;;;0.10;;
12129;SDS011;6128;59.340;18.040;2023-05-02T03:12:23;0.10;;;0.10;;
12129;SDS011;6128;59.340;18.040;2023-05-02T03:14:50;0.10;;;0.10;;
12129;SDS011;6128;59.340;18.040;2023-05-02T03:17:18;0.07;;;0.07;;
12129;SDS011;6128;59.340;18.040;2023-05-02T03:19:45;0.20;;;0.20;;
12129;SDS011;6128;59.340;18.040;2023-05-02T03:22:12;0.50;;;0.20;;
12129;SDS011;6128;59.340;18.040;2023-05-02T03:24:40;0.10;;;0.10;;
12129;SDS011;6128;59.340;18.040;2023-05-02T03:27:07;0.30;;;0.20;;
12129;SDS011;6128;59.340;18.040;2023-05-02T03:29:34;0.10;;;0.10;;
12129;SDS011;6128;59.340;18.040;2023-05-02T03:32:01;0.57;;;0.20;;
12129;SDS011;6128;59.340;18.040;2023-05-02T03:34:29;0.10;;;0.10;;
12129;SDS011;6128;59.340;18.040;2023-05-02T03:36:56;0.87;;;0.33;;
12129;SDS011;6128;59.340;18.040;2023-05-02T03:39:23;0.13;;;0.10;;
12129;SDS011;6128;59.340;18.040;2023-05-02T03:41:52;0.10;;;0.10;;
12129;SDS011;6128;59.340;18.040;2023-05-02T03:44:19;0.10;;;0.10;;
12129;SDS011;6128;59.340;18.040;2023-05-02T03:46:46;0.20;;;0.20;;
12129;SDS011;6128;59.340;18.040;2023-05-02T03:49:13;0.10;;;0.10;;
12129;SDS011;6128;59.340;18.040;2023-05-02T03:51:40;0.10;;;0.10;;
12129;SDS011;6128;59.340;18.040;2023-05-02T03:54:07;0.30;;;0.10;;
12129;SDS011;6128;59.340;18.040;2023-05-02T03:56:35;0.10;;;0.10;;
12129;SDS011;6128;59.340;18.040;2023-05-02T03:59:03;0.20;;;0.20;;
12129;SDS011;6128;59.340;18.040;2023-05-02T04:01:31;0.30;;;0.23;;
12129;SDS011;6128;59.340;18.040;2023-05-02T04:03:58;0.30;;;0.10;;
12129;SDS011;6128;59.340;18.040;2023-05-02T04:06:25;0.63;;;0.20;;
12129;SDS011;6128;59.340;18.040;2023-05-02T04:08:52;0.40;;;0.10;;
12129;SDS011;6128;59.340;18.040;2023-05-02T04:11:21;0.53;;;0.50;;
12129;SDS011;6128;59.340;18.040;2023-05-02T04:13:48;0.20;;;0.20;;
12129;SDS011;6128;59.340;18.040;2023-05-02T04:16:18;0.53;;;0.30;;
12129;SDS011;6128;59.340;18.040;2023-05-02T04:18:46;0.20;;;0.20;;
12129;SDS011;6128;59.340;18.040;2023-05-02T04:21:13;0.33;;;0.33;;
12129;SDS011;6128;59.340;18.040;2023-05-02T04:23:40;0.40;;;0.40;;
12129;SDS011;6128;59.340;18.040;2023-05-02T04:26:07;0.70;;;0.27;;
12129;SDS011;6128;59.340;18.040;2023-05-02T04:28:34;0.33;;;0.30;;
12129;SDS011;6128;59.340;18.040;2023-05-02T04:31:01;0.47;;;0.30;;
12129;SDS011;6128;59.340;18.040;2023-05-02T04:33:30;0.20;;;0.20;;
12129;SDS011;6128;59.340;18.040;2023-05-02T04:35:57;0.20;;;0.20;;
12129;SDS011;6128;59.340;18.040;2023-05-02T04:38:25;0.30;;;0.30;;
12129;SDS011;6128;59.340;18.040;2023-05-02T04:40:52;0.43;;;0.30;;
12129;SDS011;6128;59.340;18.040;2023-05-02T04:43:22;0.30;;;0.30;;
12129;SDS011;6128;59.340;18.040;2023-05-02T04:45:49;0.43;;;0.30;;
12129;SDS011;6128;59.340;18.040;2023-05-02T04:48:16;0.93;;;0.30;;
12129;SDS011;6128;59.340;18.040;2023-05-02T04:50:45;0.57;;;0.50;;
12129;SDS011;6128;59.340;18.040;2023-05-02T04:53:12;0.70;;;0.70;;
12129;SDS011;6128;59.340;18.040;2023-05-02T04:55:39;0.50;;;0.40;;
12129;SDS011;6128;59.340;18.040;2023-05-02T04:58:07;1.10;;;0.50;;
12129;SDS011;6128;59.340;18.040;2023-05-02T05:00:34;0.40;;;0.40;;
12129;SDS011;6128;59.340;18.040;2023-05-02T05:03:01;0.40;;;0.40;;
12129;SDS011;6128;59.340;18.040;2023-05-02T05:05:28;0.50;;;0.50;;
12129;SDS011;6128;59.340;18.040;2023-05-02T05:07:56;0.50;;;0.50;;
12129;SDS011;6128;59.340;18.040;2023-05-02T05:10:23;0.77;;;0.77;;
12129;SDS011;6128;59.340;18.040;2023-05-02T05:12:50;0.57;;;0.47;;
12129;SDS011;6128;59.340;18.040;2023-05-02T05:15:18;0.60;;;0.60;;
12129;SDS011;6128;59.340;18.040;2023-05-02T05:17:46;0.60;;;0.60;;
12129;SDS011;6128;59.340;18.040;2023-05-02T05:20:13;0.70;;;0.70;;
12129;SDS011;6128;59.340;18.040;2023-05-02T05:22:41;0.53;;;0.53;;
12129;SDS011;6128;59.340;18.040;2023-05-02T05:25:10;0.53;;;0.53;;
12129;SDS011;6128;59.340;18.040;2023-05-02T05:27:37;0.70;;;0.70;;
12129;SDS011;6128;59.340;18.040;2023-05-02T05:30:05;0.60;;;0.60;;
12129;SDS011;6128;59.340;18.040;2023-05-02T05:32:33;0.90;;;0.90;;
12129;SDS011;6128;59.340;18.040;2023-05-02T05:35:00;1.93;;;1.10;;
12129;SDS011;6128;59.340;18.040;2023-05-02T05:37:28;1.57;;;0.70;;
12129;SDS011;6128;59.340;18.040;2023-05-02T05:39:55;1.00;;;0.70;;
12129;SDS011;6128;59.340;18.040;2023-05-02T05:42:24;0.70;;;0.70;;
12129;SDS011;6128;59.340;18.040;2023-05-02T05:44:51;0.67;;;0.60;;
12129;SDS011;6128;59.340;18.040;2023-05-02T05:47:18;1.07;;;1.03;;
12129;SDS011;6128;59.340;18.040;2023-05-02T05:49:46;0.50;;;0.50;;
12129;SDS011;6128;59.340;18.040;2023-05-02T05:52:17;0.60;;;0.60;;
12129;SDS011;6128;59.340;18.040;2023-05-02T05:54:44;0.97;;;0.80;;
12129;SDS011;6128;59.340;18.040;2023-05-02T05:57:11;0.90;;;0.90;;
12129;SDS011;6128;59.340;18.040;2023-05-02T05:59:40;0.87;;;0.80;;
12129;SDS011;6128;59.340;18.040;2023-05-02T06:02:07;2.63;;;0.77;;
12129;SDS011;6128;59.340;18.040;2023-05-02T06:04:35;1.60;;;0.90;;
12129;SDS011;6128;59.340;18.040;2023-05-02T06:07:02;1.13;;;1.00;;
12129;SDS011;6128;59.340;18.040;2023-05-02T06:09:29;0.90;;;0.90;;
12129;SDS011;6128;59.340;18.040;2023-05-02T06:11:56;0.93;;;0.93;;
12129;SDS011;6128;59.340;18.040;2023-05-02T06:14:23;0.80;;;0.80;;
12129;SDS011;6128;59.340;18.040;2023-05-02T06:16:52;0.70;;;0.60;;
12129;SDS011;6128;59.340;18.040;2023-05-02T06:19:19;0.97;;;0.80;;
12129;SDS011;6128;59.340;18.040;2023-05-02T06:21:46;2.13;;;0.67;;
12129;SDS011;6128;59.340;18.040;2023-05-02T06:24:13;1.60;;;0.70;;
12129;SDS011;6128;59.340;18.040;2023-05-02T06:26:40;0.63;;;0.63;;
12129;SDS011;6128;59.340;18.040;2023-05-02T06:29:07;1.00;;;0.90;;
12129;SDS011;6128;59.340;18.040;2023-05-02T06:31:36;0.80;;;0.80;;
12129;SDS011;6128;59.340;18.040;2023-05-02T06:34:05;1.57;;;0.80;;
12129;SDS011;6128;59.340;18.040;2023-05-02T06:36:32;0.77;;;0.77;;
12129;SDS011;6128;59.340;18.040;2023-05-02T06:38:59;2.47;;;1.30;;
12129;SDS011;6128;59.340;18.040;2023-05-02T06:41:26;0.80;;;0.80;;
12129;SDS011;6128;59.340;18.040;2023-05-02T06:43:53;0.70;;;0.70;;
12129;SDS011;6128;59.340;18.040;2023-05-02T06:46:20;0.70;;;0.60;;
12129;SDS011;6128;59.340;18.040;2023-05-02T06:48:47;0.73;;;0.73;;
12129;SDS011;6128;59.340;18.040;2023-05-02T06:51:17;1.13;;;0.60;;
12129;SDS011;6128;59.340;18.040;2023-05-02T06:53:45;0.93;;;0.70;;
12129;SDS011;6128;59.340;18.040;2023-05-02T06:56:12;1.07;;;0.77;;
12129;SDS011;6128;59.340;18.040;2023-05-02T06:58:39;0.70;;;0.70;;
12129;SDS011;6128;59.340;18.040;2023-05-02T07:01:06;0.50;;;0.50;;
12129;SDS011;6128;59.340;18.040;2023-05-02T07:03:33;0.77;;;0.43;;
12129;SDS011;6128;59.340;18.040;2023-05-02T07:06:01;1.10;;;0.67;;
12129;SDS011;6128;59.340;18.040;2023-05-02T07:08:29;0.87;;;0.73;;
12129;SDS011;6128;59.340;18.040;2023-05-02T07:10:56;0.93;;;0.90;;
12129;SDS011;6128;59.340;18.040;2023-05-02T07:13:23;0.60;;;0.60;;
12129;SDS011;6128;59.340;18.040;2023-05-02T07:15:50;0.53;;;0.53;;
12129;SDS011;6128;59.340;18.040;2023-05-02T07:18:19;0.83;;;0.80;;
12129;SDS011;6128;59.340;18.040;2023-05-02T07:20:46;1.10;;;0.83;;
12129;SDS011;6128;59.340;18.040;2023-05-02T07:23:13;2.50;;;1.53;;
12129;SDS011;6128;59.340;18.040;2023-05-02T07:25:42;0.93;;;0.83;;
12129;SDS011;6128;59.340;18.040;2023-05-02T07:28:09;1.53;;;1.00;;
12129;SDS011;6128;59.340;18.040;2023-05-02T07:30:36;1.40;;;1.30;;
12129;SDS011;6128;59.340;18.040;2023-05-02T07:33:03;2.50;;;0.87;;
12129;SDS011;6128;59.340;18.040;2023-05-02T07:35:30;0.60;;;0.60;;
12129;SDS011;6128;59.340;18.040;2023-05-02T07:37:57;0.87;;;0.50;;
12129;SDS011;6128;59.340;18.040;2023-05-02T07:40:24;1.17;;;0.60;;
12129;SDS011;6128;59.340;18.040;2023-05-02T07:42:53;1.03;;;0.70;;
12129;SDS011;6128;59.340;18.040;2023-05-02T07:45:21;0.70;;;0.60;;
12129;SDS011;6128;59.340;18.040;2023-05-02T07:47:48;0.67;;;0.60;;
12129;SDS011;6128;59.340;18.040;2023-05-02T07:50:15;1.03;;;0.67;;
12129;SDS011;6128;59.340;18.040;2023-05-02T07:52:42;0.60;;;0.60;;
12129;SDS011;6128;59.340;18.040;2023-05-02T07:55:09;1.00;;;0.80;;
12129;SDS011;6128;59.340;18.040;2023-05-02T07:57:36;0.60;;;0.60;;
12129;SDS011;6128;59.340;18.040;2023-05-02T08:00:06;0.43;;;0.43;;
12129;SDS011;6128;59.340;18.040;2023-05-02T08:02:39;0.90;;;0.87;;
12129;SDS011;6128;59.340;18.040;2023-05-02T08:05:07;0.50;;;0.50;;
12129;SDS011;6128;59.340;18.040;2023-05-02T08:07:34;1.63;;;0.77;;
12129;SDS011;6128;59.340;18.040;2023-05-02T08:10:01;0.40;;;0.30;;
12129;SDS011;6128;59.340;18.040;2023-05-02T08:12:28;1.27;;;0.60;;
12129;SDS011;6128;59.340;18.040;2023-05-02T08:14:55;1.83;;;0.60;;
12129;SDS011;6128;59.340;18.040;2023-05-02T08:17:24;0.67;;;0.67;;
12129;SDS011;6128;59.340;18.040;2023-05-02T08:19:53;0.40;;;0.40;;
12129;SDS011;6128;59.340;18.040;2023-05-02T08:22:20;0.53;;;0.40;;
12129;SDS011;6128;59.340;18.040;2023-05-02T08:24:47;0.50;;;0.50;;
12129;SDS011;6128;59.340;18.040;2023-05-02T08:27:14;0.63;;;0.40;;
12129;SDS011;6128;59.340;18.040;2023-05-02T08:29:41;0.50;;;0.40;;
12129;SDS011;6128;59.340;18.040;2023-05-02T08:32:08;1.90;;;0.50;;
12129;SDS011;6128;59.340;18.040;2023-05-02T08:34:37;0.83;;;0.43;;
12129;SDS011;6128;59.340;18.040;2023-05-02T08:37:06;1.60;;;0.60;;
12129;SDS011;6128;59.340;18.040;2023-05-02T08:39:34;2.07;;;0.60;;
12129;SDS011;6128;59.340;18.040;2023-05-02T08:42:04;4.97;;;0.60;;
12129;SDS011;6128;59.340;18.040;2023-05-02T08:44:32;0.30;;;0.30;;
12129;SDS011;6128;59.340;18.040;2023-05-02T08:46:59;0.50;;;0.50;;
12129;SDS011;6128;59.340;18.040;2023-05-02T08:49:27;0.83;;;0.70;;
12129;SDS011;6128;59.340;18.040;2023-05-02T08:51:58;0.77;;;0.60;;
12129;SDS011;6128;59.340;18.040;2023-05-02T08:54:26;0.90;;;0.60;;
12129;SDS011;6128;59.340;18.040;2023-05-02T08:56:54;0.93;;;0.60;;
12129;SDS011;6128;59.340;18.040;2023-05-02T08:59:23;0.77;;;0.40;;
12129;SDS011;6128;59.340;18.040;2023-05-02T09:01:51;1.43;;;0.70;;
12129;SDS011;6128;59.340;18.040;2023-05-02T09:04:24;1.10;;;0.73;;
12129;SDS011;6128;59.340;18.040;2023-05-02T09:06:57;1.33;;;0.60;;
12129;SDS011;6128;59.340;18.040;2023-05-02T09:09:25;1.20;;;0.90;;
12129;SDS011;6128;59.340;18.040;2023-05-02T09:11:53;0.40;;;0.40;;
12129;SDS011;6128;59.340;18.040;2023-05-02T09:14:20;1.17;;;0.70;;
12129;SDS011;6128;59.340;18.040;2023-05-02T09:16:48;4.10;;;0.57;;
12129;SDS011;6128;59.340;18.040;2023-05-02T09:19:22;0.30;;;0.30;;
12129;SDS011;6128;59.340;18.040;2023-05-02T09:21:50;0.90;;;0.90;;
12129;SDS011;6128;59.340;18.040;2023-05-02T09:24:20;1.80;;;0.60;;
12129;SDS011;6128;59.340;18.040;2023-05-02T09:26:56;1.83;;;0.90;;
12129;SDS011;6128;59.340;18.040;2023-05-02T09:29:25;0.90;;;0.60;;
12129;SDS011;6128;59.340;18.040;2023-05-02T09:31:54;0.40;;;0.40;;
12129;SDS011;6128;59.340;18.040;2023-05-02T09:34:22;1.07;;;0.70;;
12129;SDS011;6128;59.340;18.040;2023-05-02T09:36:49;1.10;;;0.90;;
12129;SDS011;6128;59.340;18.040;2023-05-02T09:39:21;0.73;;;0.63;;
12129;SDS011;6128;59.340;18.040;2023-05-02T09:41:49;1.20;;;0.70;;
12129;SDS011;6128;59.340;18.040;2023-05-02T09:44:17;1.03;;;0.50;;
12129;SDS011;6128;59.340;18.040;2023-05-02T09:46:46;1.07;;;0.77;;
12129;SDS011;6128;59.340;18.040;2023-05-02T09:49:14;0.93;;;0.67;;
12129;SDS011;6128;59.340;18.040;2023-05-02T09:51:43;0.90;;;0.60;;
12129;SDS011;6128;59.340;18.040;2023-05-02T09:54:11;1.53;;;0.80;;
12129;SDS011;6128;59.340;18.040;2023-05-02T09:56:52;1.17;;;1.07;;
12129;SDS011;6128;59.340;18.040;2023-05-02T09:59:20;1.30;;;0.80;;
12129;SDS011;6128;59.340;18.040;2023-05-02T10:01:53;3.33;;;0.80;;
12129;SDS011;6128;59.340;18.040;2023-05-02T10:04:22;1.20;;;0.83;;
12129;SDS011;6128;59.340;18.040;2023-05-02T10:06:50;2.60;;;0.60;;
12129;SDS011;6128;59.340;18.040;2023-05-02T10:09:19;2.20;;;0.80;;
12129;SDS011;6128;59.340;18.040;2023-05-02T10:11:49;2.20;;;0.80;;
12129;SDS011;6128;59.340;18.040;2023-05-02T10:14:19;4.63;;;1.10;;
12129;SDS011;6128;59.340;18.040;2023-05-02T10:16:50;0.50;;;0.50;;
12129;SDS011;6128;59.340;18.040;2023-05-02T10:19:22;1.80;;;0.90;;
12129;SDS011;6128;59.340;18.040;2023-05-02T10:21:52;1.10;;;0.60;;
12129;SDS011;6128;59.340;18.040;2023-05-02T10:24:21;1.00;;;0.60;;
12129;SDS011;6128;59.340;18.040;2023-05-02T10:26:49;4.37;;;0.80;;
12129;SDS011;6128;59.340;18.040;2023-05-02T10:29:20;1.53;;;1.30;;
12129;SDS011;6128;59.340;18.040;2023-05-02T10:31:48;2.10;;;1.30;;
12129;SDS011;6128;59.340;18.040;2023-05-02T10:34:15;1.97;;;0.90;;
12129;SDS011;6128;59.340;18.040;2023-05-02T10:36:44;1.60;;;0.60;;
12129;SDS011;6128;59.340;18.040;2023-05-02T10:39:11;2.53;;;0.83;;
12129;SDS011;6128;59.340;18.040;2023-05-02T10:41:39;0.97;;;0.70;;
12129;SDS011;6128;59.340;18.040;2023-05-02T10:44:08;2.10;;;1.00;;
12129;SDS011;6128;59.340;18.040;2023-05-02T10:46:39;5.57;;;1.03;;
12129;SDS011;6128;59.340;18.040;2023-05-02T10:49:08;2.43;;;0.60;;
12129;SDS011;6128;59.340;18.040;2023-05-02T10:51:37;2.43;;;1.00;;
12129;SDS011;6128;59.340;18.040;2023-05-02T10:54:18;2.83;;;0.90;;
12129;SDS011;6128;59.340;18.040;2023-05-02T10:57:02;1.07;;;0.70;;
12129;SDS011;6128;59.340;18.040;2023-05-02T10:59:32;2.07;;;0.80;;
12129;SDS011;6128;59.340;18.040;2023-05-02T11:02:02;1.80;;;0.63;;
12129;SDS011;6128;59.340;18.040;2023-05-02T11:07:27;1.20;;;0.80;;
12129;SDS011;6128;59.340;18.040;2023-05-02T11:12:52;0.70;;;0.50;;
12129;SDS011;6128;59.340;18.040;2023-05-02T11:18:23;1.93;;;0.80;;
12129;SDS011;6128;59.340;18.040;2023-05-02T11:20:50;1.30;;;0.70;;
12129;SDS011;6128;59.340;18.040;2023-05-02T11:23:21;2.50;;;0.90;;
12129;SDS011;6128;59.340;18.040;2023-05-02T11:25:50;1.40;;;0.77;;
12129;SDS011;6128;59.340;18.040;2023-05-02T11:28:38;1.73;;;1.17;;
12129;SDS011;6128;59.340;18.040;2023-05-02T11:31:07;0.90;;;0.50;;
12129;SDS011;6128;59.340;18.040;2023-05-02T11:33:36;2.60;;;0.97;;
12129;SDS011;6128;59.340;18.040;2023-05-02T11:36:03;1.70;;;0.70;;
12129;SDS011;6128;59.340;18.040;2023-05-02T11:38:34;2.20;;;0.67;;
12129;SDS011;6128;59.340;18.040;2023-05-02T11:41:03;1.20;;;0.60;;
12129;SDS011;6128;59.340;18.040;2023-05-02T11:43:30;1.83;;;0.90;;
12129;SDS011;6128;59.340;18.040;2023-05-02T11:45:57;4.17;;;1.00;;
12129;SDS011;6128;59.340;18.040;2023-05-02T11:48:25;1.30;;;0.70;;
12129;SDS011;6128;59.340;18.040;2023-05-02T11:50:59;2.67;;;0.50;;
12129;SDS011;6128;59.340;18.040;2023-05-02T11:53:31;3.77;;;0.50;;
12129;SDS011;6128;59.340;18.040;2023-05-02T11:56:01;4.13;;;0.67;;
12129;SDS011;6128;59.340;18.040;2023-05-02T11:58:30;1.13;;;0.60;;
12129;SDS011;6128;59.340;18.040;2023-05-02T12:00:58;3.80;;;0.93;;
12129;SDS011;6128;59.340;18.040;2023-05-02T12:03:36;6.00;;;0.80;;
12129;SDS011;6128;59.340;18.040;2023-05-02T12:06:08;6.07;;;0.67;;
12129;SDS011;6128;59.340;18.040;2023-05-02T12:08:36;0.63;;;0.30;;
12129;SDS011;6128;59.340;18.040;2023-05-02T12:11:05;2.80;;;0.30;;
12129;SDS011;6128;59.340;18.040;2023-05-02T12:13:33;1.43;;;0.40;;
12129;SDS011;6128;59.340;18.040;2023-05-02T12:16:00;2.43;;;0.40;;
12129;SDS011;6128;59.340;18.040;2023-05-02T12:18:28;9.03;;;1.07;;
12129;SDS011;6128;59.340;18.040;2023-05-02T12:20:55;0.83;;;0.43;;
12129;SDS011;6128;59.340;18.040;2023-05-02T12:23:24;1.23;;;0.57;;
12129;SDS011;6128;59.340;18.040;2023-05-02T12:25:52;3.77;;;0.50;;
12129;SDS011;6128;59.340;18.040;2023-05-02T12:28:19;3.37;;;0.43;;
12129;SDS011;6128;59.340;18.040;2023-05-02T12:30:48;0.90;;;0.60;;
12129;SDS011;6128;59.340;18.040;2023-05-02T12:33:16;3.70;;;0.43;;
12129;SDS011;6128;59.340;18.040;2023-05-02T12:35:44;1.43;;;0.53;;
12129;SDS011;6128;59.340;18.040;2023-05-02T12:38:12;3.80;;;0.90;;
12129;SDS011;6128;59.340;18.040;2023-05-02T12:40:49;5.30;;;0.97;;
12129;SDS011;6128;59.340;18.040;2023-05-02T12:43:17;1.27;;;0.30;;
12129;SDS011;6128;59.340;18.040;2023-05-02T12:45:45;3.77;;;0.47;;
12129;SDS011;6128;59.340;18.040;2023-05-02T12:48:20;0.77;;;0.57;;
12129;SDS011;6128;59.340;18.040;2023-05-02T12:50:52;1.43;;;0.40;;
12129;SDS011;6128;59.340;18.040;2023-05-02T12:56:16;1.33;;;0.53;;
12129;SDS011;6128;59.340;18.040;2023-05-02T12:58:43;2.60;;;0.43;;
12129;SDS011;6128;59.340;18.040;2023-05-02T13:01:11;2.83;;;0.60;;
12129;SDS011;6128;59.340;18.040;2023-05-02T13:03:39;1.67;;;0.50;;
12129;SDS011;6128;59.340;18.040;2023-05-02T13:06:07;1.07;;;0.50;;
12129;SDS011;6128;59.340;18.040;2023-05-02T13:08:34;1.23;;;0.40;;
12129;SDS011;6128;59.340;18.040;2023-05-02T13:11:02;3.73;;;0.73;;
12129;SDS011;6128;59.340;18.040;2023-05-02T13:13:30;0.90;;;0.40;;
12129;SDS011;6128;59.340;18.040;2023-05-02T13:15:59;1.77;;;0.70;;
12129;SDS011;6128;59.340;18.040;2023-05-02T13:18:26;0.70;;;0.30;;
12129;SDS011;6128;59.340;18.040;2023-05-02T13:20:53;1.93;;;0.60;;
12129;SDS011;6128;59.340;18.040;2023-05-02T13:23:20;8.57;;;0.70;;
12129;SDS011;6128;59.340;18.040;2023-05-02T13:25:47;0.63;;;0.47;;
12129;SDS011;6128;59.340;18.040;2023-05-02T13:28:14;1.10;;;0.40;;
12129;SDS011;6128;59.340;18.040;2023-05-02T13:30:43;1.33;;;0.50;;
12129;SDS011;6128;59.340;18.040;2023-05-02T13:33:10;0.53;;;0.40;;
12129;SDS011;6128;59.340;18.040;2023-05-02T13:35:37;2.77;;;0.60;;
12129;SDS011;6128;59.340;18.040;2023-05-02T13:38:04;0.50;;;0.33;;
12129;SDS011;6128;59.340;18.040;2023-05-02T13:40:31;2.73;;;0.70;;
12129;SDS011;6128;59.340;18.040;2023-05-02T13:42:59;5.33;;;0.70;;
12129;SDS011;6128;59.340;18.040;2023-05-02T13:45:26;0.70;;;0.50;;
12129;SDS011;6128;59.340;18.040;2023-05-02T13:47:54;4.43;;;0.60;;
12129;SDS011;6128;59.340;18.040;2023-05-02T13:50:22;1.67;;;0.30;;
12129;SDS011;6128;59.340;18.040;2023-05-02T13:52:49;0.50;;;0.30;;
12129;SDS011;6128;59.340;18.040;2023-05-02T13:55:16;0.23;;;0.23;;
12129;SDS011;6128;59.340;18.040;2023-05-02T13:57:43;1.90;;;0.40;;
12129;SDS011;6128;59.340;18.040;2023-05-02T14:00:11;1.77;;;0.40;;
12129;SDS011;6128;59.340;18.040;2023-05-02T14:02:40;1.37;;;0.17;;
12129;SDS011;6128;59.340;18.040;2023-05-02T14:05:09;0.37;;;0.30;;
12129;SDS011;6128;59.340;18.040;2023-05-02T14:07:36;1.33;;;0.30;;
12129;SDS011;6128;59.340;18.040;2023-05-02T14:10:03;1.20;;;0.20;;
12129;SDS011;6128;59.340;18.040;2023-05-02T14:12:31;0.93;;;0.30;;
12129;SDS011;6128;59.340;18.040;2023-05-02T14:14:58;1.27;;;0.30;;
12129;SDS011;6128;59.340;18.040;2023-05-02T14:17:25;0.40;;;0.23;;
12129;SDS011;6128;59.340;18.040;2023-05-02T14:19:53;2.47;;;0.20;;
12129;SDS011;6128;59.340;18.040;2023-05-02T14:22:21;1.07;;;0.40;;
12129;SDS011;6128;59.340;18.040;2023-05-02T14:24:48;0.97;;;0.30;;
12129;SDS011;6128;59.340;18.040;2023-05-02T14:27:15;1.83;;;0.20;;
12129;SDS011;6128;59.340;18.040;2023-05-02T14:29:43;1.47;;;0.60;;
12129;SDS011;6128;59.340;18.040;2023-05-02T14:32:10;2.23;;;0.33;;
12129;SDS011;6128;59.340;18.040;2023-05-02T14:34:37;6.13;;;0.60;;
12129;SDS011;6128;59.340;18.040;2023-05-02T14:37:05;0.80;;;0.30;;
12129;SDS011;6128;59.340;18.040;2023-05-02T14:39:35;1.83;;;0.43;;
12129;SDS011;6128;59.340;18.040;2023-05-02T14:42:04;3.67;;;0.70;;
12129;SDS011;6128;59.340;18.040;2023-05-02T14:44:31;1.13;;;0.40;;
12129;SDS011;6128;59.340;18.040;2023-05-02T14:46:58;1.40;;;0.40;;
12129;SDS011;6128;59.340;18.040;2023-05-02T14:49:26;2.27;;;0.57;;
12129;SDS011;6128;59.340;18.040;2023-05-02T14:51:53;1.57;;;0.33;;
12129;SDS011;6128;59.340;18.040;2023-05-02T14:54:24;0.97;;;0.37;;
12129;SDS011;6128;59.340;18.040;2023-05-02T14:56:53;2.20;;;0.30;;
12129;SDS011;6128;59.340;18.040;2023-05-02T14:59:21;2.63;;;0.70;;
12129;SDS011;6128;59.340;18.040;2023-05-02T15:01:50;1.30;;;0.40;;
12129;SDS011;6128;59.340;18.040;2023-05-02T15:04:18;2.70;;;0.37;;
12129;SDS011;6128;59.340;18.040;2023-05-02T15:06:45;2.87;;;0.40;;
12129;SDS011;6128;59.340;18.040;2023-05-02T15:09:13;1.97;;;0.30;;